Time;durP1;ratioP1;P1;durP2;ratioP2;P2;SDS_P1;SDS_P2;PMS_P1;PMS_P2;Temp;Humidity;BMP_temperature;BMP_pressure;BME280_temperature;BME280_humidity;BME280_pressure;Samples;Min_cycle;Max_cycle;Signal;HPM_P1;HPM_P2
2023/09/11 00:00:33;;;;;;;7.50;5.67;;;22.20;69.90;;;;;;5025702;28;20118;-71
2023/09/11 00:02:59;;;;;;;9.10;5.10;;;22.20;70.80;;;;;;5026614;28;20026;-70
2023/09/11 00:05:24;;;;;;;6.43;4.87;;;22.10;70.60;;;;;;5025403;28;20525;-70
2023/09/11 00:07:50;;;;;;;7.47;5.10;;;22.00;70.50;;;;;;5026378;28;20029;-70
2023/09/11 00:10:16;;;;;;;6.23;4.63;;;21.90;72.40;;;;;;5013733;28;20033;-70
2023/09/11 00:12:41;;;;;;;6.93;5.40;;;21.90;71.20;;;;;;5025669;28;20032;-70
2023/09/11 00:15:07;;;;;;;11.20;5.33;;;21.80;72.80;;;;;;5025739;28;20385;-70
2023/09/11 00:17:33;;;;;;;5.75;4.78;;;21.80;72.30;;;;;;5025587;28;20040;-70
2023/09/11 00:19:59;;;;;;;8.13;4.80;;;21.80;70.50;;;;;;5026259;28;20029;-71
2023/09/11 00:22:24;;;;;;;10.20;4.60;;;21.70;71.20;;;;;;5026424;28;20026;-71
2023/09/11 00:24:50;;;;;;;7.83;5.37;;;21.80;72.20;;;;;;5026335;28;20064;-71
2023/09/11 00:27:15;;;;;;;7.90;4.57;;;21.80;71.50;;;;;;5026583;28;20060;-70
2023/09/11 00:29:41;;;;;;;6.80;5.33;;;21.70;70.60;;;;;;5025765;28;20095;-70
2023/09/11 00:32:06;;;;;;;5.93;5.10;;;21.70;73.20;;;;;;5026752;28;20393;-70
2023/09/11 00:34:33;;;;;;;5.93;4.90;;;21.70;73.00;;;;;;5027830;28;20072;-71
2023/09/11 00:36:58;;;;;;;5.78;5.03;;;21.70;73.50;;;;;;5025850;28;20033;-71
2023/09/11 00:39:24;;;;;;;9.37;5.13;;;21.60;70.70;;;;;;5025359;28;20037;-71
2023/09/11 00:41:49;;;;;;;5.83;4.73;;;21.60;73.20;;;;;;5025551;28;20280;-71
2023/09/11 00:44:15;;;;;;;10.80;4.83;;;21.60;71.10;;;;;;5024086;28;20041;-71
2023/09/11 00:46:41;;;;;;;6.37;5.20;;;21.70;71.40;;;;;;5024091;28;20124;-71
2023/09/11 00:49:08;;;;;;;7.35;4.20;;;21.60;73.30;;;;;;5026382;28;20052;-71
2023/09/11 00:51:34;;;;;;;7.00;4.93;;;21.60;72.20;;;;;;5025831;28;20040;-71
2023/09/11 00:54:00;;;;;;;;;;;21.70;72.90;;;;;;5026481;28;20049;-71
2023/09/11 00:56:25;;;;;;;6.57;4.35;;;21.80;69.10;;;;;;5025424;28;19951;-71
2023/09/11 00:58:52;;;;;;;6.07;4.82;;;21.70;70.50;;;;;;5026667;28;20100;-71
2023/09/11 01:01:18;;;;;;;;;;;21.80;68.30;;;;;;5026077;28;20045;-71
2023/09/11 01:03:46;;;;;;;6.32;4.65;;;21.80;68.90;;;;;;5025999;28;19913;-71
2023/09/11 01:06:11;;;;;;;6.78;4.72;;;21.80;70.30;;;;;;5025796;28;20041;-71
2023/09/11 01:08:37;;;;;;;11.03;5.57;;;21.80;72.10;;;;;;5026280;28;20033;-71
2023/09/11 01:11:02;;;;;;;9.10;4.90;;;21.80;68.90;;;;;;5025664;28;21095;-71
2023/09/11 01:13:28;;;;;;;7.43;4.43;;;21.70;70.50;;;;;;5026443;28;20044;-71
2023/09/11 01:16:36;;;;;;;7.87;4.93;;;21.70;70.80;;;;;;5025910;28;20060;-72
2023/09/11 01:19:34;;;;;;;6.32;4.60;;;21.60;71.00;;;;;;5024653;28;20025;-71
2023/09/11 01:22:17;;;;;;;9.30;4.40;;;21.60;71.10;;;;;;5025360;28;20033;-70
2023/09/11 01:25:15;;;;;;;6.72;4.47;;;21.40;72.70;;;;;;5023873;28;20390;-71
2023/09/11 01:27:57;;;;;;;6.40;4.72;;;21.40;72.00;;;;;;5025863;28;20033;-71
2023/09/11 01:30:25;;;;;;;11.02;4.72;;;21.40;70.90;;;;;;5027444;28;20087;-70
2023/09/11 01:32:51;;;;;;;14.60;4.90;;;21.40;69.90;;;;;;5028914;28;20028;-71
2023/09/11 01:35:17;;;;;;;6.72;5.05;;;21.40;72.10;;;;;;5029056;28;20064;-71
2023/09/11 01:37:42;;;;;;;4.90;4.37;;;21.30;70.70;;;;;;5028964;28;20544;-71
2023/09/11 01:40:08;;;;;;;10.77;4.77;;;21.40;72.10;;;;;;5028619;28;20269;-71
2023/09/11 01:42:44;;;;;;;13.45;4.85;;;21.30;71.50;;;;;;5028892;28;20038;-71
2023/09/11 01:45:15;;;;;;;5.80;4.10;;;21.30;71.30;;;;;;5028816;28;20048;-70
2023/09/11 01:47:46;;;;;;;9.43;4.85;;;21.20;70.00;;;;;;5029260;28;20129;-72
2023/09/11 01:50:17;;;;;;;6.45;5.10;;;21.30;69.20;;;;;;5028663;28;20033;-71
2023/09/11 01:52:45;;;;;;;6.72;4.97;;;21.40;70.30;;;;;;5029753;28;20029;-71
2023/09/11 01:55:11;;;;;;;5.07;4.20;;;21.30;68.70;;;;;;5028650;28;20036;-68
2023/09/11 01:57:36;;;;;;;5.50;4.43;;;21.30;69.60;;;;;;5029057;28;20026;-69
2023/09/11 02:00:04;;;;;;;6.43;4.37;;;21.20;69.10;;;;;;5028547;28;20072;-69
2023/09/11 02:02:29;;;;;;;8.85;4.70;;;21.20;75.30;;;;;;5028847;28;20268;-71
2023/09/11 02:04:55;;;;;;;8.20;4.50;;;21.30;70.80;;;;;;5028804;28;20057;-70
2023/09/11 02:07:21;;;;;;;5.68;4.32;;;21.60;68.60;;;;;;5023754;28;20029;-70
2023/09/11 02:09:47;;;;;;;15.05;4.50;;;21.60;67.60;;;;;;5017119;28;20348;-69
2023/09/11 02:12:14;;;;;;;9.73;5.18;;;21.50;67.60;;;;;;5014442;28;20121;-71
2023/09/11 02:14:40;;;;;;;6.82;5.00;;;21.30;70.00;;;;;;5019856;28;20059;-70
2023/09/11 02:17:05;;;;;;;6.00;4.03;;;21.30;72.10;;;;;;5014931;28;20041;-71
2023/09/11 02:19:32;;;;;;;10.17;4.93;;;21.20;70.00;;;;;;5021935;28;20025;-71
2023/09/11 02:21:58;;;;;;;8.32;5.20;;;21.20;69.70;;;;;;5016281;28;20037;-69
2023/09/11 02:24:24;;;;;;;6.80;4.60;;;21.10;71.00;;;;;;5016254;28;20107;-71
2023/09/11 02:26:50;;;;;;;9.00;5.15;;;21.20;71.00;;;;;;5012831;28;20037;-71
2023/09/11 02:29:15;;;;;;;14.07;4.30;;;21.10;72.50;;;;;;5016113;28;20033;-71
2023/09/11 02:31:41;;;;;;;4.90;3.90;;;21.20;69.70;;;;;;5016497;28;20056;-71
2023/09/11 02:34:07;;;;;;;6.50;4.70;;;21.10;69.70;;;;;;5020234;28;20727;-71
2023/09/11 02:36:32;;;;;;;8.88;4.45;;;21.10;69.30;;;;;;5022684;28;20041;-71
2023/09/11 02:38:58;;;;;;;9.03;5.17;;;21.10;70.40;;;;;;5018622;28;20026;-70
2023/09/11 02:41:24;;;;;;;7.10;4.67;;;21.00;71.90;;;;;;5013943;28;20053;-71
2023/09/11 02:43:49;;;;;;;9.20;4.63;;;21.00;73.30;;;;;;5026459;28;20284;-71
2023/09/11 02:46:15;;;;;;;13.07;4.80;;;21.40;67.80;;;;;;5017214;28;20542;-71
2023/09/11 02:48:47;;;;;;;9.00;4.73;;;21.20;69.90;;;;;;5018914;28;20037;-71
2023/09/11 02:51:13;;;;;;;7.88;4.60;;;21.30;69.20;;;;;;5020238;28;20060;-71
2023/09/11 02:53:39;;;;;;;6.70;4.60;;;21.20;71.20;;;;;;5020806;28;20021;-71
2023/09/11 02:56:05;;;;;;;7.37;4.50;;;21.10;72.50;;;;;;5016183;28;20119;-71
2023/09/11 02:58:31;;;;;;;9.40;4.75;;;20.90;72.60;;;;;;5018212;28;20105;-71
2023/09/11 03:01:04;;;;;;;7.25;4.70;;;21.00;68.90;;;;;;5017213;28;20049;-71
2023/09/11 03:03:30;;;;;;;7.90;4.13;;;20.90;70.50;;;;;;5016600;28;20022;-70
2023/09/11 03:06:00;;;;;;;8.50;4.78;;;21.10;68.40;;;;;;5015895;28;20053;-70
2023/09/11 03:08:26;;;;;;;9.05;5.00;;;21.20;68.50;;;;;;5016646;28;20026;-71
2023/09/11 03:10:52;;;;;;;6.72;5.28;;;21.10;71.50;;;;;;5015508;28;20061;-71
2023/09/11 03:13:17;;;;;;;7.20;4.70;;;21.00;70.80;;;;;;5016123;28;20911;-70
2023/09/11 03:15:43;;;;;;;9.50;4.97;;;20.90;70.10;;;;;;5012929;28;20030;-71
2023/09/11 03:18:09;;;;;;;7.10;5.07;;;21.40;68.00;;;;;;5016696;28;20037;-71
2023/09/11 03:20:34;;;;;;;7.82;4.60;;;21.60;66.80;;;;;;5017207;28;20118;-71
2023/09/11 03:23:00;;;;;;;5.17;4.43;;;21.50;66.80;;;;;;5021772;28;20117;-71
2023/09/11 03:25:26;;;;;;;8.10;4.43;;;21.20;67.60;;;;;;5020741;28;20037;-71
2023/09/11 03:27:52;;;;;;;9.43;4.77;;;21.10;68.80;;;;;;5017327;28;20056;-71
2023/09/11 03:30:18;;;;;;;6.53;4.70;;;21.20;68.10;;;;;;5019156;28;20313;-71
2023/09/11 03:32:43;;;;;;;9.37;5.27;;;21.20;68.10;;;;;;5014913;28;20559;-70
2023/09/11 03:35:09;;;;;;;6.63;4.97;;;21.00;69.40;;;;;;5015301;28;20560;-70
2023/09/11 03:37:35;;;;;;;10.52;5.57;;;20.90;69.60;;;;;;5026130;28;20028;-69
2023/09/11 03:40:07;;;;;;;9.43;5.00;;;21.00;69.40;;;;;;5021187;28;20065;-68
2023/09/11 03:42:33;;;;;;;7.95;5.20;;;21.00;70.10;;;;;;5015902;28;20033;-69
2023/09/11 03:45:00;;;;;;;6.13;4.38;;;20.90;69.70;;;;;;5015190;28;20080;-69
2023/09/11 03:47:25;;;;;;;6.28;4.60;;;20.80;69.70;;;;;;5018682;28;20040;-69
2023/09/11 03:49:51;;;;;;;8.60;5.00;;;20.60;72.20;;;;;;5013768;28;20033;-71
2023/09/11 03:52:16;;;;;;;7.87;4.80;;;20.70;71.50;;;;;;5010370;28;20026;-70
2023/09/11 03:54:42;;;;;;;5.67;4.67;;;20.50;71.50;;;;;;5016964;28;20033;-70
2023/09/11 03:57:08;;;;;;;6.60;4.80;;;20.40;71.70;;;;;;5017504;28;20037;-70
2023/09/11 03:59:33;;;;;;;6.77;5.13;;;20.40;74.50;;;;;;5014450;28;20053;-71
2023/09/11 04:01:59;;;;;;;8.13;5.10;;;20.30;72.90;;;;;;5018758;28;20041;-70
2023/09/11 04:04:24;;;;;;;5.53;4.87;;;20.20;74.50;;;;;;5011868;28;20088;-70
2023/09/11 04:06:50;;;;;;;8.50;5.37;;;20.20;73.40;;;;;;5022925;28;20029;-71
2023/09/11 04:09:15;;;;;;;13.23;6.10;;;20.30;72.80;;;;;;5015662;28;20034;-69
2023/09/11 04:11:41;;;;;;;7.00;5.33;;;20.10;73.30;;;;;;5017413;28;20050;-70
2023/09/11 04:14:06;;;;;;;8.47;5.57;;;20.00;74.30;;;;;;5014924;28;20048;-70
2023/09/11 04:16:32;;;;;;;17.37;6.27;;;20.00;74.30;;;;;;5017280;28;20441;-71
2023/09/11 04:18:58;;;;;;;7.60;5.23;;;20.00;74.10;;;;;;5015450;28;20066;-70
2023/09/11 04:21:23;;;;;;;7.07;5.43;;;20.00;75.30;;;;;;5018683;28;20037;-71
2023/09/11 04:23:49;;;;;;;8.40;5.53;;;19.90;74.60;;;;;;5012779;28;20527;-70
2023/09/11 04:26:15;;;;;;;7.40;5.30;;;19.80;75.50;;;;;;5023954;28;20461;-72
2023/09/11 04:28:41;;;;;;;8.90;5.38;;;19.70;75.20;;;;;;5016322;28;20041;-71
2023/09/11 04:31:06;;;;;;;9.67;5.60;;;19.60;75.90;;;;;;5015866;28;20029;-71
2023/09/11 04:33:33;;;;;;;11.47;5.23;;;19.70;75.30;;;;;;5016710;28;20485;-71
2023/09/11 04:35:59;;;;;;;6.35;4.72;;;19.60;75.50;;;;;;5016076;28;20095;-69
2023/09/11 04:38:24;;;;;;;9.77;5.70;;;19.60;75.80;;;;;;5008077;28;20022;-71
2023/09/11 04:40:56;;;;;;;9.63;5.00;;;19.50;76.20;;;;;;5017611;28;20715;-71
2023/09/11 04:43:22;;;;;;;7.25;5.00;;;19.50;76.10;;;;;;5016998;28;20043;-71
2023/09/11 04:45:48;;;;;;;9.02;5.15;;;19.50;76.90;;;;;;5015532;28;20115;-71
2023/09/11 04:48:13;;;;;;;11.47;5.50;;;19.50;76.60;;;;;;5014518;28;20069;-71
2023/09/11 04:50:39;;;;;;;9.80;5.27;;;19.50;76.90;;;;;;5013632;28;20037;-71
2023/09/11 04:53:04;;;;;;;11.57;5.37;;;19.50;77.00;;;;;;5014226;28;20041;-69
2023/09/11 04:55:30;;;;;;;10.33;6.00;;;19.50;76.70;;;;;;5014656;28;20109;-72
2023/09/11 04:57:56;;;;;;;10.03;5.53;;;19.40;76.80;;;;;;5012913;28;20037;-71
2023/09/11 05:00:21;;;;;;;9.27;5.70;;;19.40;77.20;;;;;;5019711;28;20053;-71
2023/09/11 05:02:48;;;;;;;18.47;5.90;;;19.30;77.90;;;;;;5015271;28;20052;-69
2023/09/11 05:05:14;;;;;;;7.93;5.47;;;19.10;79.00;;;;;;5022435;28;20048;-69
2023/09/11 05:07:40;;;;;;;11.45;5.82;;;19.10;78.30;;;;;;5022958;28;20034;-71
2023/09/11 05:10:08;;;;;;;8.27;5.53;;;19.00;79.00;;;;;;5022686;28;20037;-71
2023/09/11 05:12:33;;;;;;;6.03;4.60;;;19.10;78.20;;;;;;5016769;28;20021;-71
2023/09/11 05:14:59;;;;;;;7.60;5.82;;;19.20;77.70;;;;;;5020858;28;20032;-71
2023/09/11 05:17:25;;;;;;;9.40;5.68;;;19.20;78.50;;;;;;5018077;28;20041;-71
2023/09/11 05:19:51;;;;;;;7.60;6.00;;;19.30;77.30;;;;;;5023854;28;20520;-72
2023/09/11 05:22:16;;;;;;;9.30;5.67;;;19.20;78.30;;;;;;5022125;28;20692;-71
2023/09/11 05:24:42;;;;;;;10.80;5.63;;;19.10;77.60;;;;;;5022899;28;20041;-69
2023/09/11 05:27:07;;;;;;;7.47;5.17;;;19.30;78.00;;;;;;5022606;28;20064;-71
2023/09/11 05:29:33;;;;;;;10.83;5.50;;;19.30;78.90;;;;;;5018385;28;20032;-71
2023/09/11 05:31:59;;;;;;;10.33;5.37;;;19.30;80.60;;;;;;5022909;28;20442;-68
2023/09/11 05:34:24;;;;;;;11.13;6.27;;;19.30;79.70;;;;;;5017787;28;20292;-69
2023/09/11 05:36:50;;;;;;;10.07;5.37;;;19.30;82.50;;;;;;5016979;28;20521;-68
2023/09/11 05:39:16;;;;;;;13.03;5.43;;;19.20;82.90;;;;;;5019820;28;20087;-68
2023/09/11 05:41:41;;;;;;;13.23;6.13;;;19.30;81.30;;;;;;5018895;28;20107;-68
2023/09/11 05:44:07;;;;;;;7.93;5.60;;;19.30;82.00;;;;;;5021443;28;20049;-68
2023/09/11 05:46:32;;;;;;;13.63;6.17;;;19.30;80.40;;;;;;5024576;28;20029;-69
2023/09/11 05:48:58;;;;;;;16.50;5.97;;;19.30;83.70;;;;;;5023804;28;20488;-70
2023/09/11 05:51:23;;;;;;;14.63;6.33;;;19.40;81.60;;;;;;5023583;28;20030;-69
2023/09/11 05:53:49;;;;;;;27.93;7.10;;;19.30;83.10;;;;;;5027424;28;20610;-71
2023/09/11 05:56:15;;;;;;;13.77;6.50;;;19.40;84.20;;;;;;5022157;28;20021;-71
2023/09/11 05:58:41;;;;;;;16.35;6.72;;;19.40;85.70;;;;;;5014050;28;20036;-70
2023/09/11 06:01:07;;;;;;;;;;;19.70;85.60;;;;;;5016380;28;20053;-70
2023/09/11 06:03:33;;;;;;;34.60;10.07;;;19.60;85.00;;;;;;5017834;28;19913;-70
2023/09/11 06:06:01;;;;;;;16.10;6.47;;;19.40;88.20;;;;;;5028434;28;20045;-69
2023/09/11 06:08:27;;;;;;;13.13;5.97;;;19.40;86.60;;;;;;5023729;28;20413;-69
2023/09/11 06:10:52;;;;;;;16.83;6.87;;;19.20;87.90;;;;;;5015116;28;20034;-70
2023/09/11 06:13:18;;;;;;;18.43;7.23;;;19.30;90.00;;;;;;5023818;28;20028;-70
2023/09/11 06:15:44;;;;;;;9.27;6.05;;;19.30;88.30;;;;;;5017534;28;20287;-71
2023/09/11 06:18:09;;;;;;;12.57;6.17;;;19.40;89.20;;;;;;5026947;28;20112;-70
2023/09/11 06:20:35;;;;;;;11.83;6.23;;;19.40;88.80;;;;;;5022400;28;20029;-72
2023/09/11 06:23:01;;;;;;;12.90;5.88;;;19.60;88.70;;;;;;5018833;28;20155;-72
2023/09/11 06:25:27;;;;;;;9.47;6.23;;;19.70;86.60;;;;;;5013275;28;20420;-72
2023/09/11 06:27:52;;;;;;;11.40;6.20;;;19.80;87.10;;;;;;5018954;28;20706;-71
2023/09/11 06:30:18;;;;;;;28.93;7.10;;;19.90;87.80;;;;;;5025425;28;20496;-70
2023/09/11 06:32:44;;;;;;;15.57;6.30;;;20.10;85.10;;;;;;5021710;28;20055;-72
2023/09/11 06:35:10;;;;;;;13.97;7.13;;;20.30;83.20;;;;;;5022887;28;20831;-70
2023/09/11 06:37:36;;;;;;;9.15;5.80;;;20.30;82.00;;;;;;5021237;28;20188;-70
2023/09/11 06:40:07;;;;;;;14.30;7.05;;;20.60;79.40;;;;;;5019402;28;20037;-70
2023/09/11 06:42:34;;;;;;;30.42;7.07;;;20.60;78.60;;;;;;5018773;28;20029;-71
2023/09/11 06:45:00;;;;;;;8.27;5.82;;;20.80;76.30;;;;;;5020738;28;20080;-70
2023/09/11 06:47:25;;;;;;;18.48;6.25;;;20.80;77.10;;;;;;5017032;28;20032;-73
2023/09/11 06:49:51;;;;;;;13.00;6.70;;;20.80;79.20;;;;;;5018549;28;20030;-74
2023/09/11 06:52:17;;;;;;;10.67;6.30;;;20.90;78.00;;;;;;5020630;28;20549;-73
2023/09/11 06:54:43;;;;;;;11.48;6.22;;;20.90;78.90;;;;;;5016847;28;20121;-75
2023/09/11 06:57:08;;;;;;;11.45;6.68;;;21.10;78.00;;;;;;5015593;28;20117;-75
2023/09/11 06:59:34;;;;;;;7.90;5.73;;;21.20;77.60;;;;;;5027058;28;20033;-74
2023/09/11 07:02:00;;;;;;;10.90;5.73;;;21.30;78.90;;;;;;5020547;28;20109;-71
2023/09/11 07:04:25;;;;;;;12.27;6.60;;;21.40;78.00;;;;;;5016270;28;20519;-75
2023/09/11 07:06:51;;;;;;;22.53;6.67;;;21.50;77.70;;;;;;5014853;28;20049;-74
2023/09/11 07:09:17;;;;;;;12.52;6.13;;;21.60;77.00;;;;;;5014850;28;20018;-73
2023/09/11 07:11:42;;;;;;;13.00;6.53;;;21.70;76.40;;;;;;5022078;28;20383;-73
2023/09/11 07:14:12;;;;;;;12.37;6.03;;;21.80;75.80;;;;;;5020099;28;20092;-74
2023/09/11 07:16:38;;;;;;;10.10;6.65;;;21.90;79.30;;;;;;5020363;28;20546;-72
2023/09/11 07:19:04;;;;;;;8.57;6.68;;;22.00;79.00;;;;;;5023412;28;20033;-75
2023/09/11 07:21:29;;;;;;;14.50;6.70;;;22.10;76.20;;;;;;5021736;28;20044;-74
2023/09/11 07:23:55;;;;;;;13.37;6.40;;;22.20;75.90;;;;;;5022572;28;20514;-76
2023/09/11 07:26:21;;;;;;;20.37;6.27;;;22.40;76.90;;;;;;5017660;28;20034;-73
2023/09/11 07:29:15;;;;;;;13.60;6.67;;;22.60;73.30;;;;;;5014584;28;20052;-77
2023/09/11 07:31:41;;;;;;;10.07;6.25;;;22.60;73.90;;;;;;5016612;28;20069;-79
2023/09/11 07:34:07;;;;;;;11.00;6.10;;;22.60;74.30;;;;;;5008469;28;20357;-77
2023/09/11 07:36:32;;;;;;;10.93;6.37;;;22.80;73.80;;;;;;5015226;28;20284;-77
2023/09/11 07:38:58;;;;;;;10.07;6.37;;;22.80;72.70;;;;;;5017938;28;20359;-75
2023/09/11 07:41:23;;;;;;;14.83;5.73;;;22.80;74.30;;;;;;5019087;28;20120;-73
2023/09/11 07:43:49;;;;;;;9.43;5.73;;;22.70;76.30;;;;;;5016561;28;20914;-76
2023/09/11 07:46:17;;;;;;;13.13;5.22;;;22.70;75.30;;;;;;5015598;28;20037;-76
2023/09/11 07:48:43;;;;;;;22.15;5.47;;;22.70;75.90;;;;;;5014998;28;20167;-77
2023/09/11 07:51:09;;;;;;;8.93;5.32;;;22.90;74.00;;;;;;5012331;28;20553;-76
2023/09/11 07:53:34;;;;;;;13.23;5.83;;;23.20;72.50;;;;;;5010452;28;20069;-76
2023/09/11 07:56:08;;;;;;;14.37;6.00;;;23.30;70.90;;;;;;5017967;28;20036;-69
2023/09/11 07:58:35;;;;;;;10.98;5.13;;;23.60;71.00;;;;;;5020315;28;20048;-68
2023/09/11 08:01:01;;;;;;;7.57;4.80;;;23.70;69.90;;;;;;5016025;28;20022;-74
2023/09/11 08:03:26;;;;;;;14.45;6.30;;;23.70;69.30;;;;;;5020086;28;20044;-76
2023/09/11 08:05:53;;;;;;;7.97;5.50;;;24.10;70.20;;;;;;5020402;28;20037;-72
2023/09/11 08:08:18;;;;;;;11.45;5.32;;;24.80;66.90;;;;;;5019314;28;20329;-67
2023/09/11 08:10:45;;;;;;;10.40;5.78;;;24.50;66.80;;;;;;5022632;28;20130;-67
2023/09/11 08:13:11;;;;;;;14.23;5.60;;;24.90;64.80;;;;;;5022442;28;20064;-68
2023/09/11 08:15:36;;;;;;;8.07;5.10;;;24.70;67.20;;;;;;5022275;28;20034;-68
2023/09/11 08:18:02;;;;;;;6.53;5.67;;;24.60;67.60;;;;;;5025857;28;20029;-68
2023/09/11 08:20:28;;;;;;;10.47;5.07;;;25.00;68.00;;;;;;5024121;28;20291;-68
2023/09/11 08:22:53;;;;;;;12.95;5.50;;;25.00;66.10;;;;;;5019233;28;20291;-67
2023/09/11 08:25:19;;;;;;;8.65;5.45;;;25.00;66.40;;;;;;5023255;28;20041;-68
2023/09/11 08:27:45;;;;;;;6.67;5.37;;;25.50;65.90;;;;;;5025735;28;20029;-68
2023/09/11 08:30:11;;;;;;;10.43;5.60;;;25.20;65.60;;;;;;5016398;28;20034;-67
2023/09/11 08:32:37;;;;;;;7.63;5.18;;;25.00;67.60;;;;;;5017664;28;20342;-67
2023/09/11 08:35:03;;;;;;;8.73;5.53;;;25.20;65.90;;;;;;5008528;28;20155;-66
2023/09/11 08:37:30;;;;;;;11.55;6.70;;;25.40;63.60;;;;;;5013830;28;20029;-67
2023/09/11 08:39:55;;;;;;;9.02;4.97;;;27.00;65.20;;;;;;5015226;28;20041;-66
2023/09/11 08:42:23;;;;;;;9.68;5.15;;;29.30;61.90;;;;;;5022031;28;20079;-73
2023/09/11 08:44:49;;;;;;;15.38;5.72;;;30.70;60.00;;;;;;5022811;28;20042;-75
2023/09/11 08:47:16;;;;;;;6.78;4.55;;;30.40;56.50;;;;;;5024300;28;20413;-72
2023/09/11 08:49:44;;;;;;;6.85;4.70;;;29.50;58.90;;;;;;5024933;28;20127;-73
2023/09/11 08:52:14;;;;;;;27.52;8.48;;;28.40;61.00;;;;;;5023498;28;20393;-69
2023/09/11 08:54:42;;;;;;;33.85;10.95;;;27.90;64.80;;;;;;5023893;28;20034;-71
2023/09/11 08:57:12;;;;;;;25.40;9.43;;;29.40;69.00;;;;;;5024159;28;20136;-70
2023/09/11 08:59:40;;;;;;;20.48;7.93;;;29.10;61.10;;;;;;5020180;28;20541;-70
2023/09/11 09:02:07;;;;;;;22.17;8.38;;;28.20;61.20;;;;;;5022669;28;20084;-70
2023/09/11 09:04:34;;;;;;;10.32;5.20;;;27.70;62.90;;;;;;5023281;28;20057;-71
2023/09/11 09:07:01;;;;;;;9.15;5.60;;;29.70;61.40;;;;;;5024061;28;20517;-71
2023/09/11 09:09:27;;;;;;;20.90;8.73;;;;;;;;;;5023482;28;20537;-70
2023/09/11 09:11:53;;;;;;;12.30;6.80;;;32.70;79.20;;;;;;5022567;28;20479;-70
2023/09/11 09:14:19;;;;;;;;;;;33.10;79.60;;;;;;5018311;28;20056;-71
2023/09/11 09:16:45;;;;;;;6.80;5.57;;;32.80;77.40;;;;;;5022784;28;19909;-71
2023/09/11 09:19:12;;;;;;;11.15;6.22;;;33.10;80.40;;;;;;5021211;28;20037;-71
2023/09/11 09:22:04;;;;;;;10.70;6.38;;;33.10;78.00;;;;;;5018592;28;20029;-71
2023/09/11 09:24:31;;;;;;;5.85;4.55;;;33.30;76.90;;;;;;5012662;28;20391;-72
2023/09/11 09:26:58;;;;;;;8.73;5.25;;;33.40;77.90;;;;;;5020850;28;20030;-72
2023/09/11 09:29:24;;;;;;;7.38;4.82;;;33.30;78.50;;;;;;5019808;28;20445;-71
2023/09/11 09:31:50;;;;;;;8.68;5.30;;;33.50;73.90;;;;;;5021672;28;20116;-71
2023/09/11 09:34:16;;;;;;;5.70;4.75;;;33.30;73.40;;;;;;5021428;28;20025;-71
2023/09/11 09:36:49;;;;;;;5.78;5.13;;;33.50;73.90;;;;;;5019479;28;20041;-70
2023/09/11 09:39:14;;;;;;;7.78;4.72;;;33.70;74.80;;;;;;5017148;28;20087;-70
2023/09/11 09:41:57;;;;;;;5.57;4.90;;;33.60;74.60;;;;;;5018671;28;21740;-71
2023/09/11 09:44:34;;;;;;;15.23;5.20;;;33.20;78.60;;;;;;5019903;28;20037;-71
2023/09/11 09:47:08;;;;;;;9.82;4.57;;;;;;;;;;5018284;28;20026;-70
2023/09/11 09:49:44;;;;;;;13.02;4.53;;;;;;;;;;5021085;28;20044;-71
2023/09/11 09:52:11;;;;;;;6.95;4.22;;;;;;;;;;5024669;28;20059;-71
2023/09/11 09:54:50;;;;;;;7.35;4.47;;;;;;;;;;5023176;28;20508;-71
2023/09/11 09:57:17;;;;;;;9.13;4.60;;;;;;;;;;5015055;28;20113;-72
2023/09/11 09:59:47;;;;;;;7.97;4.57;;;;;;;;;;5016707;28;20053;-72
2023/09/11 10:02:14;;;;;;;6.93;4.57;;;;;;;;;;5024788;28;20029;-71
2023/09/11 10:04:40;;;;;;;7.25;4.20;;;;;;;;;;5021497;28;20048;-72
2023/09/11 10:07:06;;;;;;;5.30;4.80;;;31.10;86.20;;;;;;5014008;28;20030;-72
2023/09/11 10:09:34;;;;;;;7.15;5.05;;;;;;;;;;5018788;28;20115;-72
2023/09/11 10:12:04;;;;;;;5.45;4.47;;;;;;;;;;5016332;28;20030;-72
2023/09/11 10:14:30;;;;;;;6.28;4.78;;;;;;;;;;5016798;28;20090;-72
2023/09/11 10:16:58;;;;;;;5.93;4.75;;;;;;;;;;5019426;28;20029;-72
2023/09/11 10:19:25;;;;;;;7.78;4.80;;;;;;;;;;5015356;28;20037;-71
2023/09/11 10:21:51;;;;;;;5.18;4.68;;;;;;;;;;5019334;28;20029;-72
2023/09/11 10:24:16;;;;;;;5.57;4.82;;;;;;;;;;5016859;28;20044;-71
2023/09/11 10:26:52;;;;;;;7.10;4.32;;;;;;;;;;5017110;28;20081;-72
2023/09/11 10:29:37;;;;;;;8.32;3.97;;;;;;;;;;5018195;28;20030;-71
2023/09/11 10:32:09;;;;;;;6.47;4.13;;;;;;;;;;5017625;28;20033;-72
2023/09/11 10:34:37;;;;;;;6.35;5.25;;;;;;;;;;5023478;28;20036;-71
2023/09/11 10:37:04;;;;;;;8.48;4.13;;;;;;;;;;5025792;28;20037;-71
2023/09/11 10:39:30;;;;;;;7.13;5.40;;;;;;;;;;5025721;28;20414;-74
2023/09/11 10:41:56;;;;;;;4.65;4.18;;;;;;;;;;5024704;28;20826;-73
2023/09/11 10:44:22;;;;;;;12.05;5.30;;;;;;;;;;5021856;28;20045;-74
2023/09/11 10:46:49;;;;;;;6.47;4.50;;;;;;;;;;5024380;28;20037;-73
2023/09/11 10:49:17;;;;;;;4.88;4.45;;;;;;;;;;5023932;28;20068;-74
2023/09/11 10:51:43;;;;;;;6.53;4.93;;;;;;;;;;5022634;28;20026;-73
2023/09/11 10:54:11;;;;;;;8.15;5.15;;;;;;;;;;5025084;28;20039;-74
2023/09/11 10:56:38;;;;;;;10.10;4.63;;;;;;;;;;5022179;28;20029;-72
2023/09/11 10:59:04;;;;;;;9.13;4.80;;;;;;;;;;5023433;28;20029;-74
2023/09/11 11:01:30;;;;;;;;;;;;;;;;;;5022823;28;20061;-71
2023/09/11 11:03:57;;;;;;;6.43;4.97;;;;;;;;;;5021709;28;19924;-73
2023/09/11 11:06:24;;;;;;;5.40;4.82;;;;;;;;;;5009642;28;20037;-74
2023/09/11 11:08:50;;;;;;;9.73;5.13;;;;;;;;;;5021573;28;20108;-74
2023/09/11 11:11:15;;;;;;;;;;;;;;;;;;5021735;28;20038;-74
2023/09/11 11:14:01;;;;;;;7.88;4.95;;;;;;;;;;5016998;28;19967;-74
2023/09/11 11:16:27;;;;;;;12.10;6.10;;;;;;;;;;5019123;28;20029;-75
2023/09/11 11:18:54;;;;;;;;;;;;;;;;;;5011637;28;20485;-74
2023/09/11 11:21:20;;;;;;;12.85;5.80;;;;;;;;;;5011884;28;19962;-73
2023/09/11 11:23:53;;;;;;;10.15;5.80;;;;;;;;;;5014276;28;20585;-74
2023/09/11 11:26:19;;;;;;;8.73;5.22;;;;;;;;;;5017679;28;20084;-75
2023/09/11 11:28:46;;;;;;;6.85;5.30;;;28.50;56.40;;;;;;5009536;28;20029;-76
2023/09/11 11:31:18;;;;;;;10.95;5.30;;;28.40;56.50;;;;;;5014658;28;20124;-71
2023/09/11 11:33:46;;;;;;;8.43;5.32;;;28.80;55.00;;;;;;5018689;28;20030;-73
2023/09/11 11:36:14;;;;;;;6.65;4.55;;;28.90;55.10;;;;;;5014713;28;20105;-75
2023/09/11 11:38:42;;;;;;;8.40;4.97;;;28.70;55.00;;;;;;5024621;28;20056;-74
2023/09/11 11:41:09;;;;;;;6.85;4.90;;;28.70;54.90;;;;;;5024752;28;20041;-75
2023/09/11 11:43:35;;;;;;;6.57;5.30;;;28.60;56.30;;;;;;5022875;28;20029;-75
2023/09/11 11:46:01;;;;;;;8.30;5.00;;;28.60;55.60;;;;;;5022361;28;20115;-75
2023/09/11 11:48:27;;;;;;;;;;;28.70;56.00;;;;;;5022592;28;20444;-74
2023/09/11 11:50:55;;;;;;;6.85;5.05;;;28.50;56.30;;;;;;5023225;28;19913;-71
2023/09/11 11:53:23;;;;;;;5.32;4.60;;;28.60;56.50;;;;;;5021887;28;20496;-71
2023/09/11 11:55:49;;;;;;;9.15;5.07;;;28.70;56.50;;;;;;5022892;28;20125;-76
2023/09/11 11:58:16;;;;;;;14.35;5.78;;;28.90;54.70;;;;;;5022054;28;20104;-74
2023/09/11 12:01:00;;;;;;;21.65;5.65;;;28.90;56.20;;;;;;5021619;28;20040;-73
2023/09/11 12:03:28;;;;;;;7.53;4.47;;;28.60;56.70;;;;;;5020010;28;20029;-72
2023/09/11 12:05:55;;;;;;;6.65;5.45;;;28.90;55.20;;;;;;5020762;28;20589;-72
2023/09/11 12:08:21;;;;;;;6.45;4.85;;;29.10;55.40;;;;;;5015697;28;20053;-72
2023/09/11 12:10:50;;;;;;;;;;;28.80;54.80;;;;;;5025334;28;20497;-71
2023/09/11 12:13:26;;;;;;;9.23;4.95;;;28.80;55.40;;;;;;5015350;28;19991;-72
2023/09/11 12:15:54;;;;;;;10.40;4.88;;;28.80;56.40;;;;;;5021054;28;20068;-71
2023/09/11 12:18:22;;;;;;;5.85;4.85;;;28.70;57.50;;;;;;5020376;28;20029;-72
2023/09/11 12:21:17;;;;;;;8.48;4.30;;;29.00;56.20;;;;;;5023628;28;20036;-71
2023/09/11 12:23:42;;;;;;;7.15;5.18;;;28.80;56.00;;;;;;5012610;28;20045;-71
2023/09/11 12:26:08;;;;;;;9.77;5.90;;;28.80;56.30;;;;;;5024080;28;20045;-71
2023/09/11 12:28:35;;;;;;;12.77;5.00;;;29.00;56.80;;;;;;5025198;28;20034;-71
2023/09/11 12:31:01;;;;;;;5.90;4.88;;;29.10;56.10;;;;;;5024492;28;20559;-70
2023/09/11 12:33:31;;;;;;;6.28;4.25;;;28.90;54.70;;;;;;5022721;28;20026;-71
2023/09/11 12:35:57;;;;;;;5.40;4.80;;;28.90;55.30;;;;;;5021768;28;20034;-71
2023/09/11 12:38:24;;;;;;;8.57;5.22;;;29.00;54.70;;;;;;5023964;28;20095;-71
2023/09/11 12:40:51;;;;;;;9.13;4.40;;;29.00;54.60;;;;;;5024481;28;20120;-71
2023/09/11 12:43:18;;;;;;;6.25;4.85;;;28.80;56.30;;;;;;5022048;28;20047;-71
2023/09/11 12:45:44;;;;;;;7.43;4.45;;;28.60;56.10;;;;;;5022631;28;20046;-71
2023/09/11 12:48:10;;;;;;;7.93;4.75;;;28.60;56.30;;;;;;5024160;28;20037;-71
2023/09/11 12:50:38;;;;;;;7.70;4.30;;;28.70;54.90;;;;;;5021853;28;20095;-71
2023/09/11 12:53:05;;;;;;;9.20;4.10;;;29.10;52.40;;;;;;5022285;28;20060;-71
2023/09/11 12:55:30;;;;;;;10.50;4.30;;;29.40;51.80;;;;;;5019106;28;20036;-70
2023/09/11 12:57:57;;;;;;;8.82;4.15;;;29.30;52.00;;;;;;5023787;28;20033;-71